METAR AND TAF INFORMATION
METAR FOR URML
ADDS - METARS form results

(1527 UTC 30 May 2020)
Data provider http://aviationweather.gov/metar/data/
 
METAR text: URML 301500Z 31005MPS 9999 SCT///CB 25/12 Q1014 R32/01//70 NOSIG RMK QFE760/1013
Conditions at: URML (UYTASH , RU) observed 1500 UTC 30 May 2020
Temperature: 25.0°C (77°F)
Dewpoint: 12.0°C (54°F) [RH = 44%]
Pressure (altimeter): 29.94 inches Hg (1014.0 mb)
Winds: from the NW (310 degrees) at 12 MPH (10 knots; 5.1 m/s)
Visibility: 6 or more miles (10+ km)
Ceiling: unknown
Clouds: missing
Weather: no significant weather observed at this time

METAR text: URML 301430Z 31006MPS 9999 SCT///CB 25/12 Q1014 R32/01//70 NOSIG RMK QFE760/1013
Conditions at: URML (UYTASH , RU) observed 1430 UTC 30 May 2020
Temperature: 25.0°C (77°F)
Dewpoint: 12.0°C (54°F) [RH = 44%]
Pressure (altimeter): 29.94 inches Hg (1014.0 mb)
Winds: from the NW (310 degrees) at 14 MPH (12 knots; 6.2 m/s)
Visibility: 6 or more miles (10+ km)
Ceiling: unknown
Clouds: missing
Weather: no significant weather observed at this time

Forecast for: URML (UYTASH , RU)
Text: TAF URML 301400Z 3015/3024 31005G12MPS 9999 SCT040CB
Forecast period: 1500 UTC 30 May 2020 to 0000 UTC 31 May 2020
Forecast type: FROM: standard forecast or significant change
Winds: from the NW (310 degrees) at 12 MPH (10 knots; 5.1 m/s)
gusting to 26 MPH (23 knots; 11.8 m/s)
Visibility: 6 or more miles 10+ km)
Ceiling: at least 12,000 feet AGL
Clouds: scattered clouds at 4000 feet AGL
Weather: no significant weather forecast for this period

 AIRPORT MAP

 RUNWAY INFORMATION

 AIRPORT FREQUENCIES
Type APP Name MAKHACHKAL Frequency 119.7 MHZ
Type TWR Name MAKHACHKAL Frequency 121.3 MHZ

 AIRPORT NEAR NAVIGATION AIDS
Type NDB Name Makhachkala Frequency 365 KHZ
Type NDB Name Makhachkala Frequency 365 KHZ
Type NDB Name Makhachkala Frequency 822 KHZ



2018 Air Astana Virtual Airline